< Typhoon 202110 2021 Season Typhoon 202112 >
Typhoon 202111 (NIDA)
General InformationTrack Information on Google MapsDetailed Wind InformationForecast History on Google MapsAccess Analytics MapList of All Images || NewsDisaster Info.WeblogTrackbackTyphoon FrontTwiphoonTyphoon Now!Typhoon ImaginationJMA Disaster Info. XMLResourceGoogle EarthGE AnimationAtom FeedGeoJSON
Detalied Best Track (Time Zone = UTC)
Year Month Day Hour Lat. Long. Pressure (hPa) Wind (kt) Class Image Chart
2021 8 3 12 20.8 144.4 1004 0 2 Image Chart
2021 8 3 18 22.9 146.0 1004 0 2 Image Chart
2021 8 4 00 25.1 146.6 1002 35 3 Image Chart
2021 8 4 06 27.1 147.2 1002 35 3 Image Chart
2021 8 4 12 28.8 147.1 1000 40 3 Image Chart
2021 8 4 18 30.3 147.4 1000 40 3 Image Chart
2021 8 5 00 31.5 147.6 998 45 3 Image Chart
2021 8 5 06 32.7 147.7 998 45 3 Image Chart
2021 8 5 12 33.5 148.0 998 45 3 Image Chart
2021 8 5 18 34.5 148.6 998 45 3 Image Chart
2021 8 6 00 35.4 149.8 996 50 4 Image Chart
2021 8 6 06 36.4 151.4 996 50 4 Image Chart
2021 8 6 12 36.8 153.2 996 50 4 Image Chart
2021 8 6 18 37.8 155.5 992 55 4 Image Chart
2021 8 7 00 38.7 158.0 992 55 4 Image Chart
2021 8 7 06 39.0 160.0 992 55 4 Image Chart
2021 8 7 12 39.2 163.0 996 50 4 Image Chart
2021 8 7 18 39.8 166.7 996 50 4 Image Chart
2021 8 8 00 39.9 169.0 998 0 6 Image Chart
2021 8 8 06 40.2 172.0 1000 0 6 Image Chart
2021 8 8 12 41.7 175.0 1000 0 6 Image Chart
Japan Meteorological Agency Best Track Data | Correction Date : 2021-11-10
< Typhoon 202110 2021 Season Typhoon 202112 >

Help